Time;durP1;ratioP1;P1;durP2;ratioP2;P2;SDS_P1;SDS_P2;PMS_P1;PMS_P2;Temp;Humidity;BMP_temperature;BMP_pressure;BME280_temperature;BME280_humidity;BME280_pressure;Samples;Min_cycle;Max_cycle;Signal;HPM_P1;HPM_P2
2022/06/22 00:00:18;;;;;;;11.43;8.27;;;15.40;99.90;;;;;;5054121;28;20056;-64
2022/06/22 00:02:46;;;;;;;14.80;8.85;;;15.40;99.90;;;;;;5052078;28;20047;-64
2022/06/22 00:05:47;;;;;;;12.55;8.75;;;15.30;99.90;;;;;;5052825;28;20114;-64
2022/06/22 00:08:20;;;;;;;16.23;10.05;;;15.30;99.90;;;;;;5054128;28;20056;-64
2022/06/22 00:10:52;;;;;;;17.77;9.98;;;15.20;99.90;;;;;;5052796;28;20041;-64
2022/06/22 00:13:23;;;;;;;12.23;9.23;;;15.10;99.90;;;;;;5053602;28;20421;-64
2022/06/22 00:15:57;;;;;;;14.60;9.25;;;15.10;99.90;;;;;;5053048;28;20384;-64
2022/06/22 00:18:25;;;;;;;11.80;9.90;;;15.00;99.90;;;;;;5052506;28;20461;-64
2022/06/22 00:20:54;;;;;;;12.75;9.77;;;15.00;99.90;;;;;;5052729;28;20536;-64
2022/06/22 00:23:38;;;;;;;11.93;9.07;;;15.00;99.90;;;;;;5052386;28;20389;-64
2022/06/22 00:26:24;;;;;;;12.27;9.52;;;15.00;99.90;;;;;;5052672;28;20051;-64
2022/06/22 00:29:02;;;;;;;11.82;9.57;;;15.00;99.90;;;;;;5053541;28;20353;-64
2022/06/22 00:31:39;;;;;;;12.48;9.10;;;14.90;99.90;;;;;;5053726;28;20081;-64
2022/06/22 00:34:09;;;;;;;13.68;9.60;;;14.90;99.90;;;;;;5053946;28;20045;-64
2022/06/22 00:36:57;;;;;;;14.60;8.60;;;14.90;99.90;;;;;;5053210;28;20049;-64
2022/06/22 00:39:29;;;;;;;13.50;9.55;;;14.80;99.90;;;;;;5053950;28;20140;-64
2022/06/22 00:42:16;;;;;;;13.18;9.02;;;14.80;99.90;;;;;;5053124;28;20041;-64
2022/06/22 00:44:51;;;;;;;11.48;8.68;;;14.80;99.90;;;;;;5052332;28;20045;-64
2022/06/22 00:47:23;;;;;;;11.57;9.95;;;14.80;99.90;;;;;;5052797;28;20045;-64
2022/06/22 00:49:49;;;;;;;12.65;10.45;;;14.70;99.90;;;;;;5052776;28;20558;-64
2022/06/22 00:52:27;;;;;;;12.60;9.60;;;14.70;99.90;;;;;;5051830;28;20045;-64
2022/06/22 00:54:54;;;;;;;14.98;10.55;;;14.70;99.90;;;;;;5052701;28;20052;-64
2022/06/22 00:57:25;;;;;;;11.98;10.07;;;14.60;99.90;;;;;;5052084;28;20059;-64
2022/06/22 01:00:21;;;;;;;12.38;10.82;;;14.60;99.90;;;;;;5052402;28;20049;-64
2022/06/22 01:03:01;;;;;;;11.63;9.30;;;14.50;99.90;;;;;;5052337;28;20047;-64
2022/06/22 01:05:48;;;;;;;13.55;9.88;;;14.50;99.90;;;;;;5052326;28;20041;-64
2022/06/22 01:08:29;;;;;;;12.32;10.93;;;14.40;99.90;;;;;;5052316;28;20062;-64
2022/06/22 01:11:06;;;;;;;14.55;10.40;;;14.40;99.90;;;;;;5051328;28;20489;-64
2022/06/22 01:13:45;;;;;;;16.10;9.68;;;14.40;99.90;;;;;;5053637;28;20045;-64
2022/06/22 01:16:18;;;;;;;12.60;10.02;;;14.30;99.90;;;;;;5057274;28;20041;-64
2022/06/22 01:18:48;;;;;;;16.75;11.52;;;14.30;99.90;;;;;;5056347;28;20048;-64
2022/06/22 01:21:17;;;;;;;13.55;9.55;;;14.20;99.90;;;;;;5072762;28;20048;-64
2022/06/22 01:24:15;;;;;;;11.95;10.50;;;14.20;99.90;;;;;;5055069;28;20049;-64
2022/06/22 01:27:08;;;;;;;13.77;11.07;;;14.20;99.90;;;;;;5056308;28;20056;-64
2022/06/22 01:29:35;;;;;;;13.60;10.93;;;14.10;99.90;;;;;;5056545;28;20388;-64
2022/06/22 01:32:11;;;;;;;17.30;12.18;;;14.00;99.90;;;;;;5055148;28;20049;-64
2022/06/22 01:34:42;;;;;;;15.43;11.20;;;14.00;99.90;;;;;;5073098;28;20052;-64
2022/06/22 01:37:24;;;;;;;20.92;12.32;;;14.00;99.90;;;;;;5072267;28;20491;-64
2022/06/22 01:39:55;;;;;;;11.38;10.05;;;14.00;99.90;;;;;;5072878;28;20041;-64
2022/06/22 01:42:31;;;;;;;12.65;10.18;;;13.90;99.90;;;;;;5057144;28;20041;-64
2022/06/22 01:45:04;;;;;;;13.27;10.63;;;13.90;99.90;;;;;;5054719;28;20480;-64
2022/06/22 01:47:36;;;;;;;14.20;9.80;;;13.90;99.90;;;;;;5055027;28;20049;-64
2022/06/22 01:50:09;;;;;;;14.65;10.70;;;13.80;99.90;;;;;;5056018;28;20048;-63
2022/06/22 01:52:53;;;;;;;12.52;10.45;;;13.80;99.90;;;;;;5056619;28;20045;-63
2022/06/22 01:55:41;;;;;;;14.25;10.70;;;13.70;99.90;;;;;;5057397;28;20048;-64
2022/06/22 01:58:19;;;;;;;15.82;10.90;;;13.70;99.90;;;;;;5056763;28;20041;-64
2022/06/22 02:00:53;;;;;;;18.88;13.10;;;13.60;99.90;;;;;;5056542;28;20057;-64
2022/06/22 02:03:32;;;;;;;15.57;11.55;;;13.60;99.90;;;;;;5055474;28;20485;-64
2022/06/22 02:09:27;;;;;;;15.38;10.60;;;13.50;99.90;;;;;;5054713;28;20472;-64
2022/06/22 02:12:18;;;;;;;14.40;10.68;;;13.40;99.90;;;;;;5039191;28;20041;-64
2022/06/22 02:14:44;;;;;;;11.35;10.02;;;13.40;99.90;;;;;;5054484;28;20396;-64
2022/06/22 02:17:12;;;;;;;12.10;10.80;;;13.30;99.90;;;;;;5054522;28;20389;-64
2022/06/22 02:19:40;;;;;;;19.25;11.07;;;13.20;99.90;;;;;;5071733;28;20040;-64
2022/06/22 02:22:09;;;;;;;10.40;9.23;;;13.20;99.90;;;;;;5055959;28;20465;-64
2022/06/22 02:24:41;;;;;;;14.73;9.80;;;13.20;99.90;;;;;;5053760;28;20116;-64
2022/06/22 02:27:13;;;;;;;11.30;10.13;;;13.10;99.90;;;;;;5055785;28;20064;-64
2022/06/22 02:29:44;;;;;;;12.52;9.20;;;13.10;99.90;;;;;;5053984;28;20037;-64
2022/06/22 02:32:15;;;;;;;11.75;9.90;;;13.10;99.90;;;;;;5053847;28;20041;-64
2022/06/22 02:34:43;;;;;;;12.40;10.65;;;13.00;99.90;;;;;;5055616;28;20053;-64
2022/06/22 02:37:12;;;;;;;13.93;11.43;;;13.00;99.90;;;;;;5070067;28;20472;-63
2022/06/22 02:39:43;;;;;;;13.07;10.40;;;13.00;99.90;;;;;;5056009;28;20389;-63
2022/06/22 02:44:56;;;;;;;12.68;9.73;;;12.90;99.90;;;;;;5054925;28;20044;-64
2022/06/22 02:47:27;;;;;;;11.18;10.00;;;12.80;99.90;;;;;;5054813;28;20481;-63
2022/06/22 02:50:14;;;;;;;10.90;9.40;;;12.80;99.90;;;;;;5053507;28;20495;-63
2022/06/22 02:52:45;;;;;;;16.92;10.93;;;12.80;99.90;;;;;;5054891;28;20530;-63
2022/06/22 02:55:13;;;;;;;16.42;11.25;;;12.70;99.90;;;;;;5054495;28;20052;-63
2022/06/22 02:57:43;;;;;;;14.82;12.82;;;12.70;99.90;;;;;;5070335;28;20048;-63
2022/06/22 03:00:10;;;;;;;17.65;11.43;;;12.70;99.90;;;;;;5055698;28;20037;-63
2022/06/22 03:02:37;;;;;;;15.23;11.20;;;12.60;99.90;;;;;;5053567;28;20048;-63
2022/06/22 03:05:05;;;;;;;18.67;11.75;;;12.60;99.90;;;;;;5070020;28;20036;-63
2022/06/22 03:07:34;;;;;;;11.88;10.45;;;12.60;99.90;;;;;;5053419;28;20081;-63
2022/06/22 03:10:02;;;;;;;15.90;11.60;;;12.60;99.90;;;;;;5070989;28;20044;-63
2022/06/22 03:12:29;;;;;;;14.52;11.02;;;12.70;99.90;;;;;;5037700;28;20047;-63
2022/06/22 03:15:06;;;;;;;14.77;10.85;;;12.70;99.90;;;;;;5053846;28;20044;-63
2022/06/22 03:17:38;;;;;;;17.13;10.88;;;12.70;99.90;;;;;;5055043;28;20108;-63
2022/06/22 03:20:21;;;;;;;14.15;10.63;;;12.70;99.90;;;;;;5054422;28;20384;-63
2022/06/22 03:22:57;;;;;;;19.05;12.40;;;12.60;99.90;;;;;;5069612;28;20491;-63
2022/06/22 03:25:28;;;;;;;13.57;11.38;;;12.60;99.90;;;;;;5055135;28;20044;-63
2022/06/22 03:27:59;;;;;;;12.73;10.93;;;12.60;99.90;;;;;;5053840;28;20048;-63
2022/06/22 03:30:28;;;;;;;12.43;10.48;;;12.60;99.90;;;;;;5069401;28;20041;-63
2022/06/22 03:33:16;;;;;;;14.02;11.10;;;12.50;99.90;;;;;;5052974;28;20083;-63
2022/06/22 03:35:51;;;;;;;14.98;11.68;;;12.50;99.90;;;;;;5053276;28;20460;-63
2022/06/22 03:38:30;;;;;;;17.42;13.10;;;12.50;99.90;;;;;;5053395;28;20041;-63
2022/06/22 03:41:11;;;;;;;15.18;12.20;;;12.50;99.90;;;;;;5052843;28;20370;-63
2022/06/22 03:43:44;;;;;;;13.85;11.35;;;12.50;99.90;;;;;;5036822;28;20049;-63
2022/06/22 03:46:40;;;;;;;15.55;10.85;;;12.50;99.90;;;;;;5070474;28;20041;-63
2022/06/22 03:49:17;;;;;;;13.70;11.68;;;12.40;99.90;;;;;;5035931;28;20044;-63
2022/06/22 03:52:12;;;;;;;15.60;11.90;;;12.50;99.90;;;;;;5054340;28;20044;-63
2022/06/22 03:54:46;;;;;;;14.02;11.82;;;12.40;99.90;;;;;;5051116;28;20043;-63
2022/06/22 03:57:15;;;;;;;16.65;12.10;;;12.40;99.90;;;;;;5036681;28;20060;-63
2022/06/22 03:59:43;;;;;;;12.38;10.63;;;12.40;99.90;;;;;;5070437;28;20396;-63
2022/06/22 04:02:10;;;;;;;13.85;10.85;;;12.40;99.90;;;;;;5069102;28;20057;-63
2022/06/22 04:04:37;;;;;;;14.52;11.48;;;12.40;99.90;;;;;;5053652;28;20076;-63
2022/06/22 04:07:04;;;;;;;12.45;10.38;;;12.40;99.90;;;;;;5053377;28;20045;-63
2022/06/22 04:09:31;;;;;;;15.02;11.98;;;12.40;99.90;;;;;;5068966;28;20123;-63
2022/06/22 04:12:08;;;;;;;15.38;11.57;;;12.40;99.90;;;;;;5052226;28;20045;-63
2022/06/22 04:14:54;;;;;;;14.23;10.98;;;12.40;99.90;;;;;;5052374;28;20392;-63
2022/06/22 04:17:35;;;;;;;12.18;10.80;;;12.40;99.90;;;;;;5071027;28;20045;-63
2022/06/22 04:20:22;;;;;;;13.20;11.00;;;12.40;99.90;;;;;;5053473;28;20045;-63
2022/06/22 04:22:52;;;;;;;14.82;12.10;;;12.40;99.90;;;;;;5053259;28;20045;-63
2022/06/22 04:25:26;;;;;;;16.05;11.68;;;12.30;99.90;;;;;;5052234;28;20057;-63
2022/06/22 04:27:53;;;;;;;15.05;11.95;;;12.40;99.90;;;;;;5051999;28;20049;-63
2022/06/22 04:30:22;;;;;;;13.65;11.43;;;12.40;99.90;;;;;;5068647;28;20052;-63
2022/06/22 04:33:11;;;;;;;16.27;11.90;;;12.40;99.90;;;;;;5051907;28;20052;-64
2022/06/22 04:36:09;;;;;;;12.77;10.93;;;12.40;99.90;;;;;;5052898;28;20106;-63
2022/06/22 04:39:17;;;;;;;16.33;12.90;;;12.50;99.90;;;;;;5052776;28;20465;-63
2022/06/22 04:41:44;;;;;;;16.23;13.10;;;12.70;99.90;;;;;;5030943;28;20425;-64
2022/06/22 04:44:21;;;;;;;15.38;12.60;;;13.10;99.90;;;;;;5030847;28;20073;-64
2022/06/22 04:46:52;;;;;;;13.20;11.70;;;13.60;99.90;;;;;;5034577;28;20045;-64
2022/06/22 04:49:19;;;;;;;14.38;11.15;;;14.00;99.90;;;;;;5071879;28;20369;-64
2022/06/22 04:51:55;;;;;;;14.38;11.00;;;14.50;99.90;;;;;;5057059;28;20431;-64
2022/06/22 04:54:30;;;;;;;13.07;11.20;;;15.00;99.90;;;;;;5057129;28;20132;-64
2022/06/22 04:56:58;;;;;;;13.85;9.80;;;15.50;99.90;;;;;;5057917;28;20063;-64
2022/06/22 04:59:25;;;;;;;11.07;9.88;;;16.10;99.90;;;;;;5055840;28;20044;-64
2022/06/22 05:01:56;;;;;;;11.85;8.93;;;16.50;99.90;;;;;;5055607;28;20045;-64
2022/06/22 05:04:31;;;;;;;12.75;9.40;;;17.00;99.90;;;;;;5057851;28;20071;-64
2022/06/22 05:07:02;;;;;;;10.38;9.48;;;17.40;99.90;;;;;;5055553;28;20049;-64
2022/06/22 05:09:34;;;;;;;9.80;8.80;;;17.80;99.90;;;;;;5056212;28;20041;-63
2022/06/22 05:12:01;;;;;;;11.93;9.57;;;18.20;99.90;;;;;;5055282;28;20052;-64
2022/06/22 05:14:30;;;;;;;11.00;9.65;;;18.60;99.90;;;;;;5055699;28;20053;-64
2022/06/22 05:17:06;;;;;;;13.82;9.63;;;18.90;99.90;;;;;;5039235;28;20052;-63
2022/06/22 05:19:56;;;;;;;10.98;9.48;;;19.10;99.90;;;;;;5055579;28;20370;-64
2022/06/22 05:22:23;;;;;;;17.42;10.35;;;19.40;99.90;;;;;;5055246;28;20055;-64
2022/06/22 05:24:52;;;;;;;13.23;9.80;;;19.80;99.90;;;;;;5054959;28;20072;-64
2022/06/22 05:27:23;;;;;;;10.98;9.05;;;20.00;99.90;;;;;;5055391;28;20115;-64
2022/06/22 05:29:57;;;;;;;13.65;9.80;;;20.10;99.90;;;;;;5055069;28;20526;-64
2022/06/22 05:32:28;;;;;;;11.35;9.57;;;20.10;99.90;;;;;;5039486;28;20049;-64
2022/06/22 05:34:56;;;;;;;11.80;9.05;;;20.00;99.90;;;;;;5056407;28;20132;-64
2022/06/22 05:37:30;;;;;;;13.00;11.68;;;19.90;99.90;;;;;;5055930;28;20045;-64
2022/06/22 05:39:57;;;;;;;11.15;9.93;;;19.80;99.90;;;;;;5055116;28;20388;-64
2022/06/22 05:42:24;;;;;;;13.57;10.90;;;19.70;99.90;;;;;;5055813;28;20045;-64
2022/06/22 05:44:52;;;;;;;15.60;11.55;;;19.60;99.90;;;;;;5056149;28;20048;-64
2022/06/22 05:47:27;;;;;;;14.02;11.88;;;19.40;99.90;;;;;;5057047;28;20060;-66
2022/06/22 05:50:18;;;;;;;23.50;18.35;;;19.30;99.90;;;;;;5055788;28;20068;-65
2022/06/22 05:52:51;;;;;;;48.03;40.13;;;19.30;99.90;;;;;;5055585;28;20036;-65
2022/06/22 05:55:28;;;;;;;27.10;22.85;;;19.40;99.90;;;;;;5054535;28;20465;-71
2022/06/22 05:58:14;;;;;;;21.15;15.38;;;19.40;99.90;;;;;;5071936;28;20063;-65
2022/06/22 06:00:47;;;;;;;16.70;13.70;;;19.50;99.90;;;;;;5073154;28;20041;-66
2022/06/22 06:03:23;;;;;;;30.23;15.68;;;19.50;99.90;;;;;;5055056;28;20045;-68
2022/06/22 06:05:52;;;;;;;88.38;79.20;;;19.30;99.90;;;;;;5056237;28;20412;-66
2022/06/22 06:08:29;;;;;;;26.10;20.00;;;19.20;99.90;;;;;;5054495;28;20044;-65
2022/06/22 06:10:56;;;;;;;23.35;17.38;;;19.20;99.90;;;;;;5054673;28;20056;-64
2022/06/22 06:13:37;;;;;;;23.45;16.17;;;19.30;99.90;;;;;;5054937;28;20495;-65
2022/06/22 06:16:07;;;;;;;18.80;15.68;;;19.30;99.90;;;;;;5055594;28;20045;-63
2022/06/22 06:18:39;;;;;;;22.92;15.93;;;19.40;99.90;;;;;;5054892;28;20074;-67
2022/06/22 06:21:18;;;;;;;21.98;16.38;;;19.40;99.90;;;;;;5054876;28;20487;-65
2022/06/22 06:23:58;;;;;;;19.17;14.30;;;19.20;99.90;;;;;;5056229;28;20045;-68
2022/06/22 06:29:27;;;;;;;17.40;14.23;;;19.30;99.90;;;;;;5054905;28;20045;-68
2022/06/22 06:32:00;;;;;;;16.67;13.13;;;19.20;99.90;;;;;;5054063;28;20045;-67
2022/06/22 06:35:07;;;;;;;20.17;13.82;;;19.20;99.90;;;;;;5053973;28;20041;-71
2022/06/22 06:37:40;;;;;;;17.73;13.55;;;19.40;99.90;;;;;;5054787;28;20061;-74
2022/06/22 06:40:18;;;;;;;14.48;12.43;;;19.40;99.90;;;;;;5055661;28;20037;-72
2022/06/22 06:42:52;;;;;;;16.08;11.60;;;19.40;99.90;;;;;;5071744;28;20055;-74
2022/06/22 06:45:21;;;;;;;16.23;12.68;;;19.50;99.90;;;;;;5053607;28;20464;-73
2022/06/22 06:47:52;;;;;;;18.63;12.43;;;19.50;99.90;;;;;;5053592;28;20487;-75
2022/06/22 06:50:22;;;;;;;15.85;13.38;;;19.50;99.90;;;;;;5054542;28;20098;-75
2022/06/22 06:53:11;;;;;;;16.42;12.40;;;19.50;99.90;;;;;;5053657;28;20123;-63
2022/06/22 06:56:02;;;;;;;15.60;11.68;;;19.60;99.90;;;;;;5054657;28;20045;-68
2022/06/22 06:58:50;;;;;;;17.67;14.40;;;19.60;99.90;;;;;;5072706;28;20041;-64
2022/06/22 07:01:27;;;;;;;19.08;13.38;;;19.50;99.90;;;;;;5055057;28;20045;-65
2022/06/22 07:03:59;;;;;;;16.73;13.30;;;19.60;99.90;;;;;;5053421;28;20128;-65
2022/06/22 07:06:26;;;;;;;16.63;11.68;;;19.80;99.90;;;;;;5053499;28;20045;-65
2022/06/22 07:09:17;;;;;;;19.38;13.55;;;19.80;99.90;;;;;;5054587;28;20055;-66
2022/06/22 07:11:50;;;;;;;18.70;13.00;;;19.70;99.90;;;;;;5047485;28;20055;-65
2022/06/22 07:14:27;;;;;;;18.65;14.30;;;19.70;99.90;;;;;;5052976;28;20059;-65
2022/06/22 07:16:57;;;;;;;17.02;11.75;;;19.80;99.90;;;;;;5053179;28;20049;-65
2022/06/22 07:20:01;;;;;;;19.65;12.35;;;19.80;99.90;;;;;;5052884;28;20049;-65
2022/06/22 07:22:40;;;;;;;18.05;12.80;;;19.70;99.90;;;;;;5054689;28;20070;-65
2022/06/22 07:25:36;;;;;;;17.70;11.30;;;19.80;99.90;;;;;;5070060;28;20417;-64
2022/06/22 07:28:03;;;;;;;13.55;10.80;;;19.80;99.90;;;;;;5037344;28;20049;-65
2022/06/22 07:30:34;;;;;;;14.48;10.88;;;19.70;99.90;;;;;;5053899;28;20048;-65
2022/06/22 07:33:13;;;;;;;23.60;19.10;;;19.80;99.90;;;;;;5052843;28;20361;-64
2022/06/22 07:35:43;;;;;;;20.88;12.23;;;19.90;99.90;;;;;;5055044;28;20041;-64
2022/06/22 07:38:25;;;;;;;18.05;11.88;;;20.00;99.90;;;;;;5054089;28;20037;-64
2022/06/22 07:43:37;;;;;;;15.13;10.43;;;20.00;99.90;;;;;;5053672;28;20049;-64
2022/06/22 07:46:06;;;;;;;17.55;15.32;;;20.10;99.90;;;;;;5052696;28;20084;-64
2022/06/22 07:48:36;;;;;;;10.57;9.48;;;20.20;99.90;;;;;;5053562;28;20119;-65
2022/06/22 07:51:05;;;;;;;14.23;9.45;;;20.30;99.90;;;;;;5036159;28;20068;-65
2022/06/22 07:53:38;;;;;;;13.05;9.68;;;20.20;99.90;;;;;;5053363;28;20124;-66
2022/06/22 07:56:27;;;;;;;8.95;7.43;;;20.20;99.90;;;;;;5053197;28;20045;-66
2022/06/22 07:59:10;;;;;;;9.90;8.13;;;20.30;99.90;;;;;;5054030;28;20057;-68
2022/06/22 08:01:39;;;;;;;12.70;9.30;;;20.40;99.90;;;;;;5052552;28;20499;-66
2022/06/22 08:04:31;;;;;;;13.15;9.13;;;20.40;99.90;;;;;;5052095;28;20040;-66
2022/06/22 08:07:03;;;;;;;11.65;8.00;;;20.50;99.90;;;;;;5049525;28;20472;-67
2022/06/22 08:09:59;;;;;;;11.50;7.85;;;20.60;99.90;;;;;;5052827;28;20041;-65
2022/06/22 08:12:46;;;;;;;13.65;7.55;;;20.60;99.00;;;;;;5052562;28;20052;-65
2022/06/22 08:15:15;;;;;;;11.43;5.22;;;20.80;97.70;;;;;;5052819;28;20064;-65
2022/06/22 08:17:50;;;;;;;10.90;5.18;;;20.90;91.90;;;;;;5053636;28;20045;-64
2022/06/22 08:20:25;;;;;;;12.98;5.22;;;20.90;87.90;;;;;;5053940;28;20040;-65
2022/06/22 08:22:53;;;;;;;10.77;4.45;;;20.90;90.10;;;;;;5051906;28;20504;-67
2022/06/22 08:25:39;;;;;;;24.38;21.50;;;21.00;88.10;;;;;;5052167;28;20469;-66
2022/06/22 08:28:06;;;;;;;9.02;6.13;;;21.10;90.50;;;;;;5052114;28;20207;-73
2022/06/22 08:30:33;;;;;;;11.98;6.20;;;21.20;91.00;;;;;;5035649;28;20055;-73
2022/06/22 08:33:08;;;;;;;8.65;5.60;;;21.20;89.50;;;;;;5052980;28;20469;-65
2022/06/22 08:35:36;;;;;;;10.88;5.40;;;21.30;90.00;;;;;;5052098;28;20060;-70
2022/06/22 08:38:21;;;;;;;8.40;5.43;;;21.50;89.70;;;;;;5035316;28;20048;-71
2022/06/22 08:40:55;;;;;;;9.85;5.30;;;21.60;86.30;;;;;;5035431;28;20449;-70
2022/06/22 08:43:33;;;;;;;8.20;5.55;;;21.50;84.10;;;;;;5035529;28;20041;-73
2022/06/22 08:46:20;;;;;;;;;;;21.60;85.50;;;;;;5052277;28;20048;-73
2022/06/22 08:48:57;;;;;;;8.88;6.10;;;21.60;84.90;;;;;;5052747;28;19916;-73
2022/06/22 08:52:01;;;;;;;14.85;7.22;;;21.80;85.70;;;;;;5051769;28;20048;-73
2022/06/22 08:54:56;;;;;;;11.77;6.88;;;21.90;86.00;;;;;;5052722;28;20048;-73
2022/06/22 08:57:38;;;;;;;28.10;25.40;;;22.00;85.80;;;;;;5052358;28;20128;-64
2022/06/22 09:00:14;;;;;;;14.98;8.23;;;22.10;88.30;;;;;;5052660;28;20045;-68
2022/06/22 09:03:18;;;;;;;10.25;6.45;;;22.20;86.90;;;;;;5051499;28;20455;-72
2022/06/22 09:05:44;;;;;;;9.18;5.10;;;22.30;83.60;;;;;;5052574;28;20045;-72
2022/06/22 09:08:36;;;;;;;10.65;5.32;;;22.40;84.60;;;;;;5053667;28;20421;-71
2022/06/22 09:11:31;;;;;;;7.20;4.80;;;22.40;83.10;;;;;;5052600;28;20051;-73
2022/06/22 09:14:01;;;;;;;9.80;5.45;;;22.50;81.00;;;;;;5053353;28;20049;-73
2022/06/22 09:16:40;;;;;;;7.78;4.03;;;22.60;81.20;;;;;;5052344;28;20507;-72
2022/06/22 09:19:41;;;;;;;6.50;4.05;;;22.60;79.50;;;;;;5034805;28;20055;-73
2022/06/22 09:22:19;;;;;;;14.35;4.68;;;22.60;78.40;;;;;;5053258;28;20041;-73
2022/06/22 09:24:59;;;;;;;77.70;70.10;;;22.50;78.80;;;;;;5052854;28;20051;-68
2022/06/22 09:27:45;;;;;;;41.20;36.80;;;22.50;77.60;;;;;;5053078;28;20043;-61
2022/06/22 09:30:22;;;;;;;8.93;6.60;;;22.60;80.50;;;;;;5052159;28;20041;-70
2022/06/22 09:33:09;;;;;;;7.43;4.65;;;22.70;78.70;;;;;;5052271;28;20041;-72
2022/06/22 09:35:39;;;;;;;51.17;45.83;;;22.90;77.70;;;;;;5055851;28;20047;-66
2022/06/22 09:38:31;;;;;;;13.45;9.70;;;22.90;74.30;;;;;;5056807;28;20072;-62
2022/06/22 09:41:03;;;;;;;9.30;4.20;;;23.00;71.70;;;;;;5055666;28;20045;-74
2022/06/22 09:43:49;;;;;;;8.63;3.85;;;23.10;69.30;;;;;;5055029;28;20064;-73
2022/06/22 09:46:36;;;;;;;4.80;2.47;;;23.20;67.10;;;;;;5054703;28;20132;-73
2022/06/22 09:49:15;;;;;;;9.68;3.38;;;23.20;68.30;;;;;;5056775;28;20041;-73
2022/06/22 09:52:00;;;;;;;;;;;23.10;65.90;;;;;;5057311;28;20052;-74
2022/06/22 09:57:46;;;;;;;6.00;2.78;;;23.30;68.40;;;;;;5056792;28;20041;-73
2022/06/22 10:00:19;;;;;;;10.13;3.20;;;23.40;68.90;;;;;;5054438;28;20045;-74
2022/06/22 10:02:50;;;;;;;7.55;3.47;;;23.50;71.60;;;;;;5055042;28;20057;-73
2022/06/22 10:05:56;;;;;;;5.80;3.20;;;23.50;73.50;;;;;;5054336;28;20048;-73
2022/06/22 10:08:41;;;;;;;5.38;3.25;;;23.60;73.30;;;;;;5056331;28;20076;-73
2022/06/22 10:11:30;;;;;;;6.43;3.15;;;23.70;73.00;;;;;;5054194;28;20086;-73
2022/06/22 10:14:12;;;;;;;9.23;4.30;;;23.90;73.30;;;;;;5055628;28;20044;-73
2022/06/22 10:16:51;;;;;;;10.57;3.20;;;23.80;71.50;;;;;;5056048;28;20369;-73
2022/06/22 10:19:23;;;;;;;9.80;3.65;;;23.70;69.80;;;;;;5054110;28;20041;-73
2022/06/22 10:21:56;;;;;;;7.05;2.60;;;23.80;71.30;;;;;;5055142;28;20041;-74
2022/06/22 10:24:35;;;;;;;5.03;2.83;;;23.90;72.30;;;;;;5055313;28;20045;-74
2022/06/22 10:27:28;;;;;;;6.20;2.72;;;23.90;70.20;;;;;;5056073;28;20056;-73
2022/06/22 10:30:19;;;;;;;10.18;3.15;;;23.90;71.30;;;;;;5046659;28;20084;-73
2022/06/22 10:32:58;;;;;;;8.02;2.30;;;23.90;71.90;;;;;;5037247;28;20041;-73
2022/06/22 10:36:06;;;;;;;6.10;2.22;;;24.10;70.70;;;;;;5054890;28;20085;-73
2022/06/22 10:38:54;;;;;;;3.05;1.77;;;24.20;66.50;;;;;;5053906;28;20045;-73
2022/06/22 10:47:53;;;;;;;3.45;1.80;;;24.20;63.30;;;;;;5054359;28;20044;-73
2022/06/22 10:50:44;;;;;;;5.43;2.05;;;24.20;63.70;;;;;;5054737;28;20045;-73
2022/06/22 10:53:13;;;;;;;4.82;2.60;;;24.10;62.70;;;;;;5054174;28;20048;-71
2022/06/22 10:55:52;;;;;;;7.60;4.93;;;24.20;63.70;;;;;;5055377;28;20052;-76
2022/06/22 10:58:34;;;;;;;4.68;2.42;;;24.30;62.80;;;;;;5054178;28;20380;-66
2022/06/22 11:01:22;;;;;;;4.70;1.70;;;24.40;61.60;;;;;;5055086;28;20059;-66
2022/06/22 11:04:01;;;;;;;2.67;1.70;;;24.30;62.40;;;;;;5053323;28;20045;-66
2022/06/22 11:06:41;;;;;;;4.63;1.52;;;24.40;61.80;;;;;;5055310;28;20041;-70
2022/06/22 11:09:30;;;;;;;3.30;1.75;;;24.40;61.20;;;;;;5054184;28;20055;-76
2022/06/22 11:11:56;;;;;;;;;;;24.50;60.80;;;;;;5054344;28;20059;-70
2022/06/22 11:14:23;;;;;;;5.40;2.50;;;24.40;62.70;;;;;;5054552;28;20086;-63
2022/06/22 11:17:19;;;;;;;7.97;1.88;;;24.30;64.30;;;;;;5054987;28;20048;-65
2022/06/22 11:20:24;;;;;;;11.43;2.60;;;24.40;64.50;;;;;;5046304;28;20041;-63
2022/06/22 11:22:57;;;;;;;12.40;2.08;;;24.40;64.90;;;;;;5054032;28;20045;-64
2022/06/22 11:32:11;;;;;;;4.68;2.00;;;24.40;69.50;;;;;;5054169;28;20090;-78
2022/06/22 11:35:16;;;;;;;6.70;2.20;;;24.40;68.20;;;;;;5053594;28;20409;-80
2022/06/22 11:38:15;;;;;;;5.70;2.50;;;24.40;68.40;;;;;;5054359;28;20047;-72
2022/06/22 11:41:03;;;;;;;10.02;5.70;;;24.40;68.20;;;;;;5049359;28;20396;-76
2022/06/22 11:44:07;;;;;;;4.88;3.65;;;24.30;68.70;;;;;;5054115;28;20074;-73
2022/06/22 11:46:42;;;;;;;9.70;2.75;;;24.20;70.00;;;;;;5042560;28;20053;-78
2022/06/22 11:49:27;;;;;;;4.20;2.00;;;24.20;71.70;;;;;;5037388;28;20047;-77
2022/06/22 11:52:09;;;;;;;5.28;2.53;;;24.20;69.30;;;;;;5053854;28;20041;-78
2022/06/22 11:54:55;;;;;;;7.07;1.85;;;24.30;68.40;;;;;;5053471;28;20129;-69
2022/06/22 11:57:53;;;;;;;4.97;1.90;;;24.50;69.20;;;;;;5053554;28;20361;-70
2022/06/22 12:00:25;;;;;;;5.63;2.20;;;24.40;68.80;;;;;;5048656;28;20045;-69
2022/06/22 12:03:11;;;;;;;5.05;2.72;;;24.50;68.50;;;;;;5054097;28;20045;-69
2022/06/22 12:05:51;;;;;;;9.90;7.40;;;24.50;68.90;;;;;;5052153;28;20049;-70
2022/06/22 12:08:43;;;;;;;4.00;2.40;;;24.60;69.10;;;;;;5052117;28;20041;-71
2022/06/22 12:11:14;;;;;;;6.45;1.92;;;24.80;68.30;;;;;;5053346;28;20041;-72
2022/06/22 12:17:12;;;;;;;8.32;2.63;;;24.80;69.60;;;;;;5052238;28;20048;-70
2022/06/22 12:19:51;;;;;;;4.97;2.50;;;24.90;70.50;;;;;;5038614;28;20048;-72
2022/06/22 12:22:42;;;;;;;7.43;2.00;;;24.90;68.40;;;;;;5053205;28;20487;-67
2022/06/22 12:25:28;;;;;;;6.78;3.28;;;24.90;69.10;;;;;;5053481;28;20041;-74
2022/06/22 12:28:18;;;;;;;3.83;2.63;;;24.90;67.50;;;;;;5053171;28;20059;-69
2022/06/22 12:31:00;;;;;;;3.70;2.05;;;25.00;69.20;;;;;;5049960;28;20469;-77
2022/06/22 12:33:35;;;;;;;5.25;1.95;;;25.00;66.10;;;;;;5053535;28;20041;-78
2022/06/22 12:36:11;;;;;;;7.95;2.05;;;24.80;66.90;;;;;;5035914;28;20560;-78
2022/06/22 12:38:38;;;;;;;4.18;1.63;;;24.80;67.40;;;;;;5052380;28;20041;-78
2022/06/22 12:41:39;;;;;;;8.87;3.50;;;24.90;68.50;;;;;;5039429;28;20052;-78
2022/06/22 12:44:31;;;;;;;7.90;2.30;;;24.90;65.80;;;;;;5053228;28;20067;-77
2022/06/22 12:47:32;;;;;;;10.52;4.80;;;24.90;65.60;;;;;;5052669;28;20040;-67
2022/06/22 12:50:34;;;;;;;27.77;22.15;;;24.90;65.90;;;;;;5045200;28;20041;-69
2022/06/22 12:53:07;;;;;;;6.93;4.13;;;24.80;66.00;;;;;;5051927;28;20090;-81
2022/06/22 12:55:44;;;;;;;8.57;2.17;;;24.80;66.80;;;;;;5035283;28;20052;-75
2022/06/22 12:58:22;;;;;;;8.73;2.42;;;24.80;67.10;;;;;;5054111;28;20040;-74
2022/06/22 13:00:49;;;;;;;5.50;2.25;;;24.90;66.40;;;;;;5054207;28;20540;-75
2022/06/22 13:03:21;;;;;;;6.85;2.72;;;24.90;67.30;;;;;;5051675;28;20527;-74
2022/06/22 13:05:50;;;;;;;5.40;2.00;;;25.00;67.60;;;;;;5052363;28;20037;-74
2022/06/22 13:08:20;;;;;;;5.40;2.15;;;25.00;66.50;;;;;;5052496;28;20049;-74
2022/06/22 13:10:50;;;;;;;5.07;2.00;;;25.00;65.70;;;;;;5054996;28;20114;-77
2022/06/22 13:13:47;;;;;;;10.32;2.08;;;25.00;67.10;;;;;;5055248;28;20057;-77
2022/06/22 13:16:18;;;;;;;4.50;1.95;;;25.00;65.50;;;;;;5057340;28;20053;-74
2022/06/22 13:19:00;;;;;;;6.03;1.70;;;25.00;66.70;;;;;;5055598;28;20044;-74
2022/06/22 13:21:49;;;;;;;5.07;2.00;;;25.00;66.10;;;;;;5056719;28;20037;-77
2022/06/22 13:24:38;;;;;;;6.82;1.85;;;25.10;66.70;;;;;;5056289;28;20428;-75
2022/06/22 13:27:08;;;;;;;4.00;1.90;;;25.00;65.70;;;;;;5055982;28;20051;-75
2022/06/22 13:29:51;;;;;;;5.65;1.90;;;25.10;67.80;;;;;;5056646;28;20041;-74
2022/06/22 13:32:17;;;;;;;5.32;2.20;;;25.10;66.20;;;;;;5055306;28;20482;-74
2022/06/22 13:34:56;;;;;;;5.25;2.03;;;25.10;66.20;;;;;;5055118;28;20056;-76
2022/06/22 13:37:32;;;;;;;3.03;1.73;;;25.10;67.90;;;;;;5055163;28;20377;-74
2022/06/22 13:40:14;;;;;;;96.75;87.10;;;25.20;67.20;;;;;;5054818;28;20051;-70
2022/06/22 13:43:11;;;;;;;10.63;9.45;;;25.20;67.50;;;;;;5054926;28;20044;-70
2022/06/22 13:46:02;;;;;;;7.07;3.83;;;25.30;67.50;;;;;;5055323;28;20045;-71
2022/06/22 13:49:03;;;;;;;3.03;1.65;;;25.30;69.20;;;;;;5056169;28;20048;-77
2022/06/22 13:51:51;;;;;;;7.32;1.88;;;25.20;68.10;;;;;;5055736;28;20491;-77
2022/06/22 13:54:43;;;;;;;5.25;1.70;;;25.20;67.50;;;;;;5055926;28;20465;-75
2022/06/22 13:57:37;;;;;;;4.60;1.85;;;25.30;66.90;;;;;;5057269;28;20385;-79
2022/06/22 14:00:14;;;;;;;6.53;2.65;;;25.20;67.50;;;;;;5055485;28;20055;-77
2022/06/22 14:02:52;;;;;;;3.53;1.50;;;25.10;68.40;;;;;;5054860;28;20366;-76